sensor_id;sensor_type;location;lat;lon;timestamp;pressure;altitude;pressure_sealevel;temperature;humidity
79374;BME280;68844;53.128;17.958;2023-04-07T00:00:34;101405.50;;;2.33;78.38
79374;BME280;68844;53.128;17.958;2023-04-07T00:03:16;101400.77;;;2.34;77.91
79374;BME280;68844;53.128;17.958;2023-04-07T00:05:43;101400.83;;;2.31;78.39
79374;BME280;68844;53.128;17.958;2023-04-07T00:08:09;101399.10;;;2.31;77.62
79374;BME280;68844;53.128;17.958;2023-04-07T00:10:36;101396.98;;;2.33;78.04
79374;BME280;68844;53.128;17.958;2023-04-07T00:13:03;101399.55;;;2.36;77.96
79374;BME280;68844;53.128;17.958;2023-04-07T00:15:29;101397.96;;;2.38;77.85
79374;BME280;68844;53.128;17.958;2023-04-07T00:17:56;101395.31;;;2.42;77.98
79374;BME280;68844;53.128;17.958;2023-04-07T00:20:23;101391.73;;;2.35;78.13
79374;BME280;68844;53.128;17.958;2023-04-07T00:22:49;101392.79;;;2.34;78.81
79374;BME280;68844;53.128;17.958;2023-04-07T00:25:16;101386.86;;;2.36;78.65
79374;BME280;68844;53.128;17.958;2023-04-07T00:27:43;101381.61;;;2.38;78.49
79374;BME280;68844;53.128;17.958;2023-04-07T00:30:09;101381.68;;;2.33;79.99
79374;BME280;68844;53.128;17.958;2023-04-07T00:32:36;101379.14;;;2.28;79.67
79374;BME280;68844;53.128;17.958;2023-04-07T00:35:03;101380.35;;;2.28;79.58
79374;BME280;68844;53.128;17.958;2023-04-07T00:37:29;101376.85;;;2.31;79.31
79374;BME280;68844;53.128;17.958;2023-04-07T00:39:56;101369.19;;;2.32;80.03
79374;BME280;68844;53.128;17.958;2023-04-07T00:42:24;101372.55;;;2.27;80.89
79374;BME280;68844;53.128;17.958;2023-04-07T00:44:51;101366.50;;;2.25;80.20
79374;BME280;68844;53.128;17.958;2023-04-07T00:47:18;101359.02;;;2.27;79.58
79374;BME280;68844;53.128;17.958;2023-04-07T00:49:45;101359.43;;;2.33;79.45
79374;BME280;68844;53.128;17.958;2023-04-07T00:52:14;101357.52;;;2.34;80.83
79374;BME280;68844;53.128;17.958;2023-04-07T00:54:41;101352.52;;;2.32;80.55
79374;BME280;68844;53.128;17.958;2023-04-07T00:57:08;101353.41;;;2.29;80.84
79374;BME280;68844;53.128;17.958;2023-04-07T00:59:35;101354.96;;;2.31;79.83
79374;BME280;68844;53.128;17.958;2023-04-07T01:02:10;101360.59;;;2.39;79.87
79374;BME280;68844;53.128;17.958;2023-04-07T01:05:04;101361.21;;;2.43;80.21
79374;BME280;68844;53.128;17.958;2023-04-07T01:10:17;101360.33;;;2.32;80.53
79374;BME280;68844;53.128;17.958;2023-04-07T01:13:04;101359.61;;;2.34;80.04
79374;BME280;68844;53.128;17.958;2023-04-07T01:15:32;101359.13;;;2.44;79.47
79374;BME280;68844;53.128;17.958;2023-04-07T01:18:17;101355.05;;;2.50;79.71
79374;BME280;68844;53.128;17.958;2023-04-07T01:20:49;101347.37;;;2.52;79.84
79374;BME280;68844;53.128;17.958;2023-04-07T01:24:41;101343.56;;;2.52;79.91
79374;BME280;68844;53.128;17.958;2023-04-07T01:26:48;101339.02;;;2.52;79.68
79374;BME280;68844;53.128;17.958;2023-04-07T01:29:28;101332.19;;;2.54;79.93
79374;BME280;68844;53.128;17.958;2023-04-07T01:31:59;101331.33;;;2.55;81.08
79374;BME280;68844;53.128;17.958;2023-04-07T01:34:29;101329.48;;;2.51;81.29
79374;BME280;68844;53.128;17.958;2023-04-07T01:36:58;101324.52;;;2.46;80.81
79374;BME280;68844;53.128;17.958;2023-04-07T01:39:27;101319.59;;;2.49;81.23
79374;BME280;68844;53.128;17.958;2023-04-07T01:41:54;101320.79;;;2.52;81.27
79374;BME280;68844;53.128;17.958;2023-04-07T01:44:23;101318.80;;;2.55;81.34
79374;BME280;68844;53.128;17.958;2023-04-07T01:46:51;101324.61;;;2.50;81.11
79374;BME280;68844;53.128;17.958;2023-04-07T01:49:19;101321.31;;;2.50;80.38
79374;BME280;68844;53.128;17.958;2023-04-07T01:51:47;101322.19;;;2.51;80.67
79374;BME280;68844;53.128;17.958;2023-04-07T01:54:17;101318.19;;;2.50;81.68
79374;BME280;68844;53.128;17.958;2023-04-07T01:56:44;101319.22;;;2.52;81.25
79374;BME280;68844;53.128;17.958;2023-04-07T01:59:11;101315.52;;;2.55;81.75
79374;BME280;68844;53.128;17.958;2023-04-07T02:01:37;101314.66;;;2.53;81.89
79374;BME280;68844;53.128;17.958;2023-04-07T02:04:13;101318.12;;;2.54;81.42
79374;BME280;68844;53.128;17.958;2023-04-07T02:06:47;101320.71;;;2.55;81.26
79374;BME280;68844;53.128;17.958;2023-04-07T02:09:17;101318.41;;;2.58;81.05
79374;BME280;68844;53.128;17.958;2023-04-07T02:11:45;101316.58;;;2.64;80.47
79374;BME280;68844;53.128;17.958;2023-04-07T02:14:13;101318.46;;;2.66;81.23
79374;BME280;68844;53.128;17.958;2023-04-07T02:16:54;101315.74;;;2.62;82.09
79374;BME280;68844;53.128;17.958;2023-04-07T02:19:21;101318.00;;;2.62;81.63
79374;BME280;68844;53.128;17.958;2023-04-07T02:21:50;101314.48;;;2.64;80.68
79374;BME280;68844;53.128;17.958;2023-04-07T02:24:20;101314.50;;;2.64;81.68
79374;BME280;68844;53.128;17.958;2023-04-07T02:26:47;101316.60;;;2.63;81.87
79374;BME280;68844;53.128;17.958;2023-04-07T02:29:14;101315.06;;;2.61;82.56
79374;BME280;68844;53.128;17.958;2023-04-07T02:31:43;101310.19;;;2.61;81.67
79374;BME280;68844;53.128;17.958;2023-04-07T02:34:10;101308.77;;;2.64;80.91
79374;BME280;68844;53.128;17.958;2023-04-07T02:36:38;101306.83;;;2.66;80.99
79374;BME280;68844;53.128;17.958;2023-04-07T02:39:08;101301.59;;;2.67;80.98
79374;BME280;68844;53.128;17.958;2023-04-07T02:41:34;101296.55;;;2.66;82.71
79374;BME280;68844;53.128;17.958;2023-04-07T02:44:01;101291.25;;;2.61;81.95
79374;BME280;68844;53.128;17.958;2023-04-07T02:46:27;101284.80;;;2.62;81.75
79374;BME280;68844;53.128;17.958;2023-04-07T02:48:54;101281.47;;;2.64;81.21
79374;BME280;68844;53.128;17.958;2023-04-07T02:51:21;101283.97;;;2.71;81.27
79374;BME280;68844;53.128;17.958;2023-04-07T02:53:47;101284.71;;;2.78;81.19
79374;BME280;68844;53.128;17.958;2023-04-07T02:56:15;101279.55;;;2.76;81.89
79374;BME280;68844;53.128;17.958;2023-04-07T02:58:42;101279.63;;;2.70;81.78
79374;BME280;68844;53.128;17.958;2023-04-07T03:01:09;101279.30;;;2.69;81.68
79374;BME280;68844;53.128;17.958;2023-04-07T03:03:36;101280.49;;;2.71;81.33
79374;BME280;68844;53.128;17.958;2023-04-07T03:06:07;101278.50;;;2.74;82.54
79374;BME280;68844;53.128;17.958;2023-04-07T03:08:35;101279.16;;;2.77;82.35
79374;BME280;68844;53.128;17.958;2023-04-07T03:11:02;101277.70;;;2.71;82.52
79374;BME280;68844;53.128;17.958;2023-04-07T03:13:29;101272.00;;;2.68;82.26
79374;BME280;68844;53.128;17.958;2023-04-07T03:15:56;101272.66;;;2.71;81.56
79374;BME280;68844;53.128;17.958;2023-04-07T03:18:23;101267.54;;;2.76;82.41
79374;BME280;68844;53.128;17.958;2023-04-07T03:20:51;101270.16;;;2.74;82.17
79374;BME280;68844;53.128;17.958;2023-04-07T03:23:18;101268.21;;;2.77;81.81
79374;BME280;68844;53.128;17.958;2023-04-07T03:25:45;101270.06;;;2.80;82.30
79374;BME280;68844;53.128;17.958;2023-04-07T03:28:12;101270.92;;;2.81;81.93
79374;BME280;68844;53.128;17.958;2023-04-07T03:30:39;101271.85;;;2.88;82.13
79374;BME280;68844;53.128;17.958;2023-04-07T03:33:06;101269.73;;;2.90;82.19
79374;BME280;68844;53.128;17.958;2023-04-07T03:35:33;101265.96;;;2.86;82.11
79374;BME280;68844;53.128;17.958;2023-04-07T03:37:59;101264.42;;;2.85;81.96
79374;BME280;68844;53.128;17.958;2023-04-07T03:40:26;101260.34;;;2.90;82.05
79374;BME280;68844;53.128;17.958;2023-04-07T03:42:53;101259.96;;;2.92;81.83
79374;BME280;68844;53.128;17.958;2023-04-07T03:45:20;101256.60;;;2.94;81.96
79374;BME280;68844;53.128;17.958;2023-04-07T03:47:49;101255.23;;;2.93;81.99
79374;BME280;68844;53.128;17.958;2023-04-07T03:50:16;101255.60;;;2.92;82.09
79374;BME280;68844;53.128;17.958;2023-04-07T03:52:57;101252.85;;;2.91;81.91
79374;BME280;68844;53.128;17.958;2023-04-07T03:55:26;101253.75;;;2.98;81.90
79374;BME280;68844;53.128;17.958;2023-04-07T03:57:56;101256.77;;;2.95;83.72
79374;BME280;68844;53.128;17.958;2023-04-07T04:00:23;101256.45;;;2.94;83.47
79374;BME280;68844;53.128;17.958;2023-04-07T04:03:01;101259.40;;;2.93;82.59
79374;BME280;68844;53.128;17.958;2023-04-07T04:05:28;101258.50;;;2.95;82.75
79374;BME280;68844;53.128;17.958;2023-04-07T04:07:55;101257.91;;;2.98;82.81
79374;BME280;68844;53.128;17.958;2023-04-07T04:10:22;101256.11;;;3.03;82.85
79374;BME280;68844;53.128;17.958;2023-04-07T04:12:50;101260.98;;;3.02;83.51
79374;BME280;68844;53.128;17.958;2023-04-07T04:15:18;101260.17;;;2.99;82.66
79374;BME280;68844;53.128;17.958;2023-04-07T04:17:44;101259.33;;;3.07;82.25
79374;BME280;68844;53.128;17.958;2023-04-07T04:20:11;101259.42;;;3.11;82.52
79374;BME280;68844;53.128;17.958;2023-04-07T04:22:43;101262.48;;;3.16;83.50
79374;BME280;68844;53.128;17.958;2023-04-07T04:25:09;101265.39;;;3.09;83.90
79374;BME280;68844;53.128;17.958;2023-04-07T04:27:36;101266.11;;;3.07;83.35
79374;BME280;68844;53.128;17.958;2023-04-07T04:30:11;101259.67;;;3.17;83.89
79374;BME280;68844;53.128;17.958;2023-04-07T04:32:46;101258.35;;;3.13;83.31
79374;BME280;68844;53.128;17.958;2023-04-07T04:35:14;101257.29;;;3.14;83.02
79374;BME280;68844;53.128;17.958;2023-04-07T04:37:48;101261.09;;;3.16;83.77
79374;BME280;68844;53.128;17.958;2023-04-07T04:40:15;101261.98;;;3.24;83.22
79374;BME280;68844;53.128;17.958;2023-04-07T04:42:42;101259.29;;;3.28;83.48
79374;BME280;68844;53.128;17.958;2023-04-07T04:45:10;101257.11;;;3.24;84.47
79374;BME280;68844;53.128;17.958;2023-04-07T04:47:37;101259.00;;;3.25;83.90
79374;BME280;68844;53.128;17.958;2023-04-07T04:50:06;101261.37;;;3.29;83.25
79374;BME280;68844;53.128;17.958;2023-04-07T04:52:33;101260.68;;;3.37;82.83
79374;BME280;68844;53.128;17.958;2023-04-07T04:55:01;101260.05;;;3.43;83.17
79374;BME280;68844;53.128;17.958;2023-04-07T04:57:28;101263.34;;;3.44;83.60
79374;BME280;68844;53.128;17.958;2023-04-07T04:59:54;101261.27;;;3.43;83.90
79374;BME280;68844;53.128;17.958;2023-04-07T05:02:21;101260.70;;;3.45;84.22
79374;BME280;68844;53.128;17.958;2023-04-07T05:04:48;101260.25;;;3.50;83.25
79374;BME280;68844;53.128;17.958;2023-04-07T05:07:19;101258.41;;;3.56;83.73
79374;BME280;68844;53.128;17.958;2023-04-07T05:09:46;101260.80;;;3.57;83.79
79374;BME280;68844;53.128;17.958;2023-04-07T05:12:14;101260.45;;;3.58;83.83
79374;BME280;68844;53.128;17.958;2023-04-07T05:14:43;101255.02;;;3.59;83.30
79374;BME280;68844;53.128;17.958;2023-04-07T05:17:10;101253.66;;;3.66;83.42
79374;BME280;68844;53.128;17.958;2023-04-07T05:19:37;101257.02;;;3.73;83.23
79374;BME280;68844;53.128;17.958;2023-04-07T05:22:10;101259.51;;;3.70;84.43
79374;BME280;68844;53.128;17.958;2023-04-07T05:24:43;101256.98;;;3.66;85.33
79374;BME280;68844;53.128;17.958;2023-04-07T05:27:09;101258.63;;;3.70;85.07
79374;BME280;68844;53.128;17.958;2023-04-07T05:29:37;101259.01;;;3.77;85.03
79374;BME280;68844;53.128;17.958;2023-04-07T05:32:04;101260.65;;;3.82;85.03
79374;BME280;68844;53.128;17.958;2023-04-07T05:34:31;101260.45;;;3.83;84.85
79374;BME280;68844;53.128;17.958;2023-04-07T05:36:58;101261.36;;;3.90;84.14
79374;BME280;68844;53.128;17.958;2023-04-07T05:39:25;101261.60;;;3.94;84.80
79374;BME280;68844;53.128;17.958;2023-04-07T05:41:53;101262.70;;;4.01;84.75
79374;BME280;68844;53.128;17.958;2023-04-07T05:44:23;101265.77;;;4.03;84.69
79374;BME280;68844;53.128;17.958;2023-04-07T05:46:50;101264.55;;;4.03;84.45
79374;BME280;68844;53.128;17.958;2023-04-07T05:49:17;101262.38;;;4.07;83.94
79374;BME280;68844;53.128;17.958;2023-04-07T05:51:44;101261.45;;;4.09;84.58
79374;BME280;68844;53.128;17.958;2023-04-07T05:54:12;101262.38;;;4.14;84.36
79374;BME280;68844;53.128;17.958;2023-04-07T05:56:39;101259.12;;;4.13;84.34
79374;BME280;68844;53.128;17.958;2023-04-07T05:59:06;101263.17;;;4.10;84.53
79374;BME280;68844;53.128;17.958;2023-04-07T06:01:33;101256.52;;;4.12;84.98
79374;BME280;68844;53.128;17.958;2023-04-07T06:03:59;101257.10;;;4.16;84.90
79374;BME280;68844;53.128;17.958;2023-04-07T06:06:28;101254.48;;;4.17;85.80
79374;BME280;68844;53.128;17.958;2023-04-07T06:08:55;101256.36;;;4.18;85.16
79374;BME280;68844;53.128;17.958;2023-04-07T06:11:23;101256.13;;;4.21;84.82
79374;BME280;68844;53.128;17.958;2023-04-07T06:13:49;101260.00;;;4.34;84.62
79374;BME280;68844;53.128;17.958;2023-04-07T06:16:16;101260.88;;;4.34;85.07
79374;BME280;68844;53.128;17.958;2023-04-07T06:18:43;101259.84;;;4.33;85.39
79374;BME280;68844;53.128;17.958;2023-04-07T06:21:10;101262.05;;;4.36;85.32
79374;BME280;68844;53.128;17.958;2023-04-07T06:23:37;101263.00;;;4.40;85.65
79374;BME280;68844;53.128;17.958;2023-04-07T06:26:09;101269.52;;;4.45;85.72
79374;BME280;68844;53.128;17.958;2023-04-07T06:28:37;101264.58;;;4.40;86.12
79374;BME280;68844;53.128;17.958;2023-04-07T06:31:04;101263.86;;;4.48;85.39
79374;BME280;68844;53.128;17.958;2023-04-07T06:33:31;101260.59;;;4.46;85.71
79374;BME280;68844;53.128;17.958;2023-04-07T06:35:58;101267.55;;;4.47;85.95
79374;BME280;68844;53.128;17.958;2023-04-07T06:38:25;101263.11;;;4.50;85.94
79374;BME280;68844;53.128;17.958;2023-04-07T06:40:51;101260.34;;;4.57;85.34
79374;BME280;68844;53.128;17.958;2023-04-07T06:43:18;101262.74;;;4.59;85.99
79374;BME280;68844;53.128;17.958;2023-04-07T06:45:51;101268.19;;;4.64;85.15
79374;BME280;68844;53.128;17.958;2023-04-07T06:48:17;101270.72;;;4.60;85.83
79374;BME280;68844;53.128;17.958;2023-04-07T06:50:50;101267.91;;;4.68;85.63
79374;BME280;68844;53.128;17.958;2023-04-07T06:53:17;101268.77;;;4.76;85.61
79374;BME280;68844;53.128;17.958;2023-04-07T06:55:44;101265.04;;;4.85;84.99
79374;BME280;68844;53.128;17.958;2023-04-07T06:58:10;101259.64;;;4.85;85.01
79374;BME280;68844;53.128;17.958;2023-04-07T07:00:37;101258.06;;;4.92;84.65
79374;BME280;68844;53.128;17.958;2023-04-07T07:03:04;101254.87;;;5.07;84.55
79374;BME280;68844;53.128;17.958;2023-04-07T07:05:31;101255.96;;;5.13;84.11
79374;BME280;68844;53.128;17.958;2023-04-07T07:07:57;101255.46;;;5.11;83.96
79374;BME280;68844;53.128;17.958;2023-04-07T07:10:24;101255.72;;;5.02;84.58
79374;BME280;68844;53.128;17.958;2023-04-07T07:12:51;101257.77;;;5.10;84.31
79374;BME280;68844;53.128;17.958;2023-04-07T07:15:17;101259.36;;;5.22;84.12
79374;BME280;68844;53.128;17.958;2023-04-07T07:17:44;101264.14;;;5.13;84.42
79374;BME280;68844;53.128;17.958;2023-04-07T07:20:11;101260.36;;;5.18;83.96
79374;BME280;68844;53.128;17.958;2023-04-07T07:22:37;101265.33;;;5.09;84.60
79374;BME280;68844;53.128;17.958;2023-04-07T07:25:04;101266.25;;;5.19;84.46
79374;BME280;68844;53.128;17.958;2023-04-07T07:27:31;101270.61;;;5.19;84.34
79374;BME280;68844;53.128;17.958;2023-04-07T07:29:57;101269.69;;;5.21;84.44
79374;BME280;68844;53.128;17.958;2023-04-07T07:32:24;101268.97;;;5.22;84.40
79374;BME280;68844;53.128;17.958;2023-04-07T07:34:51;101274.52;;;5.30;84.03
79374;BME280;68844;53.128;17.958;2023-04-07T07:37:22;101272.67;;;5.40;84.09
79374;BME280;68844;53.128;17.958;2023-04-07T07:39:49;101273.30;;;5.49;83.40
79374;BME280;68844;53.128;17.958;2023-04-07T07:42:16;101276.61;;;5.49;83.83
79374;BME280;68844;53.128;17.958;2023-04-07T07:44:43;101278.36;;;5.55;83.79
79374;BME280;68844;53.128;17.958;2023-04-07T07:47:10;101283.54;;;5.39;84.48
79374;BME280;68844;53.128;17.958;2023-04-07T07:49:37;101282.55;;;5.43;84.28
79374;BME280;68844;53.128;17.958;2023-04-07T07:52:04;101286.86;;;5.57;83.83
79374;BME280;68844;53.128;17.958;2023-04-07T07:54:31;101285.00;;;5.62;83.74
79374;BME280;68844;53.128;17.958;2023-04-07T07:56:58;101286.48;;;5.58;84.03
79374;BME280;68844;53.128;17.958;2023-04-07T07:59:25;101281.38;;;5.60;84.18
79374;BME280;68844;53.128;17.958;2023-04-07T08:01:52;101281.99;;;5.69;83.49
79374;BME280;68844;53.128;17.958;2023-04-07T08:04:18;101278.89;;;5.68;83.63
79374;BME280;68844;53.128;17.958;2023-04-07T08:06:46;101280.90;;;5.64;83.59
79374;BME280;68844;53.128;17.958;2023-04-07T08:09:12;101271.82;;;5.71;83.67
79374;BME280;68844;53.128;17.958;2023-04-07T08:11:39;101273.73;;;5.77;83.59
79374;BME280;68844;53.128;17.958;2023-04-07T08:14:06;101272.13;;;5.91;83.53
79374;BME280;68844;53.128;17.958;2023-04-07T08:16:33;101271.69;;;6.12;82.77
79374;BME280;68844;53.128;17.958;2023-04-07T08:18:59;101268.14;;;6.30;82.01
79374;BME280;68844;53.128;17.958;2023-04-07T08:21:27;101266.98;;;6.45;81.66
79374;BME280;68844;53.128;17.958;2023-04-07T08:23:54;101267.17;;;6.55;81.35
79374;BME280;68844;53.128;17.958;2023-04-07T08:26:20;101273.35;;;6.53;81.15
79374;BME280;68844;53.128;17.958;2023-04-07T08:28:48;101271.29;;;6.69;80.50
79374;BME280;68844;53.128;17.958;2023-04-07T08:31:17;101276.37;;;6.57;80.61
79374;BME280;68844;53.128;17.958;2023-04-07T08:33:44;101277.35;;;6.65;80.56
79374;BME280;68844;53.128;17.958;2023-04-07T08:36:12;101276.65;;;6.76;80.22
79374;BME280;68844;53.128;17.958;2023-04-07T08:38:38;101278.25;;;6.64;80.35
79374;BME280;68844;53.128;17.958;2023-04-07T08:41:10;101282.02;;;6.83;80.37
79374;BME280;68844;53.128;17.958;2023-04-07T08:43:38;101280.31;;;6.92;80.17
79374;BME280;68844;53.128;17.958;2023-04-07T08:46:08;101273.62;;;7.18;79.26
79374;BME280;68844;53.128;17.958;2023-04-07T08:48:37;101272.02;;;7.24;78.59
79374;BME280;68844;53.128;17.958;2023-04-07T08:51:05;101269.54;;;7.30;78.62
79374;BME280;68844;53.128;17.958;2023-04-07T08:53:47;101270.05;;;7.30;78.26
79374;BME280;68844;53.128;17.958;2023-04-07T08:56:17;101269.45;;;7.42;77.90
79374;BME280;68844;53.128;17.958;2023-04-07T08:58:47;101273.61;;;7.39;78.01
79374;BME280;68844;53.128;17.958;2023-04-07T09:01:15;101270.95;;;7.30;78.52
79374;BME280;68844;53.128;17.958;2023-04-07T09:03:43;101264.36;;;7.52;77.87
79374;BME280;68844;53.128;17.958;2023-04-07T09:06:10;101266.11;;;7.76;77.26
79374;BME280;68844;53.128;17.958;2023-04-07T09:08:37;101266.88;;;7.45;78.10
79374;BME280;68844;53.128;17.958;2023-04-07T09:11:04;101274.44;;;7.45;78.37
79374;BME280;68844;53.128;17.958;2023-04-07T09:13:31;101275.09;;;7.42;78.23
79374;BME280;68844;53.128;17.958;2023-04-07T09:16:00;101278.31;;;7.54;77.86
79374;BME280;68844;53.128;17.958;2023-04-07T09:18:27;101272.20;;;7.58;78.00
79374;BME280;68844;53.128;17.958;2023-04-07T09:20:57;101274.21;;;7.56;78.17
79374;BME280;68844;53.128;17.958;2023-04-07T09:23:29;101273.70;;;7.46;78.63
79374;BME280;68844;53.128;17.958;2023-04-07T09:25:58;101270.00;;;7.22;79.34
79374;BME280;68844;53.128;17.958;2023-04-07T09:28:38;101269.48;;;7.41;78.73
79374;BME280;68844;53.128;17.958;2023-04-07T09:31:06;101273.05;;;7.40;79.48
79374;BME280;68844;53.128;17.958;2023-04-07T09:33:33;101269.05;;;7.54;79.30
79374;BME280;68844;53.128;17.958;2023-04-07T09:36:00;101267.17;;;7.61;79.24
79374;BME280;68844;53.128;17.958;2023-04-07T09:38:38;101261.55;;;8.22;77.50
79374;BME280;68844;53.128;17.958;2023-04-07T09:41:09;101260.89;;;8.30;76.19
79374;BME280;68844;53.128;17.958;2023-04-07T09:43:38;101254.92;;;8.48;75.74
79374;BME280;68844;53.128;17.958;2023-04-07T09:46:16;101254.45;;;8.81;75.54
79374;BME280;68844;53.128;17.958;2023-04-07T09:48:44;101249.87;;;9.06;74.36
79374;BME280;68844;53.128;17.958;2023-04-07T09:51:16;101247.54;;;9.03;73.37
79374;BME280;68844;53.128;17.958;2023-04-07T09:53:45;101244.93;;;9.07;73.42
79374;BME280;68844;53.128;17.958;2023-04-07T09:56:16;101242.56;;;9.21;73.14
79374;BME280;68844;53.128;17.958;2023-04-07T09:58:45;101240.19;;;9.23;72.83
79374;BME280;68844;53.128;17.958;2023-04-07T10:01:14;101240.62;;;8.92;73.49
79374;BME280;68844;53.128;17.958;2023-04-07T10:03:45;101242.30;;;9.02;73.43
79374;BME280;68844;53.128;17.958;2023-04-07T10:06:15;101243.20;;;9.14;74.11
79374;BME280;68844;53.128;17.958;2023-04-07T10:08:42;101242.57;;;9.33;73.80
79374;BME280;68844;53.128;17.958;2023-04-07T10:11:09;101240.86;;;9.19;73.16
79374;BME280;68844;53.128;17.958;2023-04-07T10:13:39;101237.27;;;9.33;73.98
79374;BME280;68844;53.128;17.958;2023-04-07T10:16:07;101238.13;;;9.45;72.69
79374;BME280;68844;53.128;17.958;2023-04-07T10:18:35;101237.00;;;9.51;72.65
79374;BME280;68844;53.128;17.958;2023-04-07T10:21:04;101232.23;;;9.82;72.30
79374;BME280;68844;53.128;17.958;2023-04-07T10:26:03;101234.81;;;9.91;71.55
79374;BME280;68844;53.128;17.958;2023-04-07T10:28:33;101232.95;;;10.08;71.71
79374;BME280;68844;53.128;17.958;2023-04-07T10:31:04;101231.27;;;10.32;71.04
79374;BME280;68844;53.128;17.958;2023-04-07T10:36:16;101233.17;;;10.29;69.83
79374;BME280;68844;53.128;17.958;2023-04-07T10:41:36;101230.48;;;11.08;69.40
79374;BME280;68844;53.128;17.958;2023-04-07T10:44:08;101226.62;;;11.01;67.72
79374;BME280;68844;53.128;17.958;2023-04-07T10:49:11;101228.86;;;10.67;68.75
79374;BME280;68844;53.128;17.958;2023-04-07T10:51:39;101230.48;;;10.56;69.09
79374;BME280;68844;53.128;17.958;2023-04-07T10:54:19;101228.63;;;10.51;69.46
79374;BME280;68844;53.128;17.958;2023-04-07T10:57:08;101228.91;;;10.67;69.57
79374;BME280;68844;53.128;17.958;2023-04-07T10:59:41;101233.72;;;11.04;68.46
79374;BME280;68844;53.128;17.958;2023-04-07T11:04:44;101232.35;;;10.99;68.47
79374;BME280;68844;53.128;17.958;2023-04-07T11:07:13;101228.00;;;10.88;68.56
79374;BME280;68844;53.128;17.958;2023-04-07T11:09:40;101229.66;;;10.83;69.19
79374;BME280;68844;53.128;17.958;2023-04-07T11:12:07;101232.74;;;10.67;69.49
79374;BME280;68844;53.128;17.958;2023-04-07T11:14:34;101227.20;;;10.86;68.64
79374;BME280;68844;53.128;17.958;2023-04-07T11:17:03;101227.09;;;10.81;68.80
79374;BME280;68844;53.128;17.958;2023-04-07T11:19:50;101224.80;;;10.85;69.37
79374;BME280;68844;53.128;17.958;2023-04-07T11:22:20;101225.36;;;10.95;69.26
79374;BME280;68844;53.128;17.958;2023-04-07T11:24:47;101224.65;;;11.01;68.54
79374;BME280;68844;53.128;17.958;2023-04-07T11:27:14;101226.27;;;10.87;69.06
79374;BME280;68844;53.128;17.958;2023-04-07T11:29:41;101217.77;;;11.52;68.10
79374;BME280;68844;53.128;17.958;2023-04-07T11:32:09;101216.42;;;11.83;67.03
79374;BME280;68844;53.128;17.958;2023-04-07T11:34:37;101217.33;;;11.41;66.96
79374;BME280;68844;53.128;17.958;2023-04-07T11:37:25;101218.76;;;11.17;67.43
79374;BME280;68844;53.128;17.958;2023-04-07T11:39:53;101213.70;;;11.09;67.08
79374;BME280;68844;53.128;17.958;2023-04-07T11:42:31;101215.65;;;11.12;67.28
79374;BME280;68844;53.128;17.958;2023-04-07T11:44:58;101212.65;;;11.19;67.46
79374;BME280;68844;53.128;17.958;2023-04-07T11:47:38;101207.25;;;11.38;67.42
79374;BME280;68844;53.128;17.958;2023-04-07T11:50:06;101212.65;;;11.55;66.50
79374;BME280;68844;53.128;17.958;2023-04-07T11:52:46;101208.89;;;11.40;66.83
79374;BME280;68844;53.128;17.958;2023-04-07T11:55:20;101208.12;;;11.51;66.30
79374;BME280;68844;53.128;17.958;2023-04-07T11:57:50;101206.13;;;11.79;65.73
79374;BME280;68844;53.128;17.958;2023-04-07T12:00:18;101201.86;;;11.79;65.51
79374;BME280;68844;53.128;17.958;2023-04-07T12:02:45;101196.02;;;12.08;65.19
79374;BME280;68844;53.128;17.958;2023-04-07T12:05:12;101194.95;;;12.48;63.89
79374;BME280;68844;53.128;17.958;2023-04-07T12:07:39;101184.95;;;12.83;63.69
79374;BME280;68844;53.128;17.958;2023-04-07T12:10:17;101182.98;;;12.92;63.05
79374;BME280;68844;53.128;17.958;2023-04-07T12:12:45;101183.77;;;13.17;63.15
79374;BME280;68844;53.128;17.958;2023-04-07T12:15:12;101184.42;;;13.53;61.73
79374;BME280;68844;53.128;17.958;2023-04-07T12:17:44;101183.33;;;13.70;61.02
79374;BME280;68844;53.128;17.958;2023-04-07T12:20:13;101183.16;;;14.03;60.03
79374;BME280;68844;53.128;17.958;2023-04-07T12:22:40;101184.46;;;14.02;60.03
79374;BME280;68844;53.128;17.958;2023-04-07T12:25:07;101179.71;;;13.85;60.28
79374;BME280;68844;53.128;17.958;2023-04-07T12:27:34;101178.45;;;13.83;59.99
79374;BME280;68844;53.128;17.958;2023-04-07T12:30:01;101179.61;;;13.84;60.59
79374;BME280;68844;53.128;17.958;2023-04-07T12:32:28;101179.70;;;13.91;59.83
79374;BME280;68844;53.128;17.958;2023-04-07T12:34:54;101177.30;;;14.25;59.28
79374;BME280;68844;53.128;17.958;2023-04-07T12:37:21;101172.85;;;14.28;58.90
79374;BME280;68844;53.128;17.958;2023-04-07T12:39:48;101175.52;;;14.58;58.16
79374;BME280;68844;53.128;17.958;2023-04-07T12:42:14;101173.10;;;14.56;57.96
79374;BME280;68844;53.128;17.958;2023-04-07T12:44:41;101170.73;;;14.81;57.54
79374;BME280;68844;53.128;17.958;2023-04-07T12:47:07;101169.84;;;15.02;56.97
79374;BME280;68844;53.128;17.958;2023-04-07T12:49:36;101169.13;;;15.09;56.87
79374;BME280;68844;53.128;17.958;2023-04-07T12:52:03;101174.70;;;15.36;56.53
79374;BME280;68844;53.128;17.958;2023-04-07T12:54:32;101175.74;;;15.06;55.85
79374;BME280;68844;53.128;17.958;2023-04-07T12:56:58;101175.58;;;14.72;56.97
79374;BME280;68844;53.128;17.958;2023-04-07T12:59:25;101180.31;;;14.33;58.13
79374;BME280;68844;53.128;17.958;2023-04-07T13:01:52;101185.45;;;14.09;59.46
79374;BME280;68844;53.128;17.958;2023-04-07T13:04:19;101185.94;;;14.20;59.11
79374;BME280;68844;53.128;17.958;2023-04-07T13:06:45;101185.98;;;14.28;58.64
79374;BME280;68844;53.128;17.958;2023-04-07T13:09:12;101189.66;;;14.33;58.70
79374;BME280;68844;53.128;17.958;2023-04-07T13:11:38;101190.39;;;13.98;58.95